createdAt,value
2017-02-02T00:04:04.037Z,1004.86
2017-02-02T00:09:00.556Z,1004.81
2017-02-02T00:13:57.077Z,1004.75
2017-02-02T00:18:55.858Z,1004.74
2017-02-02T00:23:51.685Z,1004.67
2017-02-02T00:28:48.449Z,1004.60
2017-02-02T00:33:44.501Z,1004.66
2017-02-02T00:38:42.020Z,1004.70
2017-02-02T00:43:38.508Z,1004.69
2017-02-02T00:48:34.955Z,1004.57
2017-02-02T00:53:31.034Z,1004.67
2017-02-02T00:58:27.581Z,1004.59
2017-02-02T01:03:24.059Z,1004.52
2017-02-02T01:08:20.877Z,1004.57
2017-02-02T01:13:17.314Z,1004.47
2017-02-02T01:18:13.734Z,1004.45
2017-02-02T01:23:10.714Z,1004.45
2017-02-02T01:28:06.861Z,1004.46
2017-02-02T01:33:03.233Z,1004.39
2017-02-02T01:37:59.758Z,1004.39
2017-02-02T01:42:56.191Z,1004.37
2017-02-02T01:47:53.065Z,1004.41
2017-02-02T01:52:49.631Z,1004.31
2017-02-02T01:57:46.148Z,1004.25
2017-02-02T02:02:42.653Z,1004.25
2017-02-02T02:07:39.000Z,1004.27
2017-02-02T02:12:35.201Z,1004.24
2017-02-02T02:17:31.969Z,1004.16
2017-02-02T02:22:29.688Z,1004.01
2017-02-02T02:27:26.185Z,1004.04
2017-02-02T02:32:22.761Z,1004.08
2017-02-02T02:37:19.396Z,1004.00
2017-02-02T02:42:16.544Z,1004.00
2017-02-02T02:47:15.778Z,1004.09
2017-02-02T02:52:11.878Z,1004.03
2017-02-02T02:57:08.501Z,1003.96
2017-02-02T03:02:04.852Z,1003.95
2017-02-02T03:07:01.426Z,1003.98
2017-02-02T03:11:57.986Z,1004.03
2017-02-02T03:16:54.502Z,1003.90
2017-02-02T03:21:50.745Z,1003.95
2017-02-02T03:26:47.316Z,1003.89
2017-02-02T03:31:44.092Z,1003.93
2017-02-02T03:36:40.434Z,1003.83
2017-02-02T03:41:36.916Z,1003.82
2017-02-02T03:46:33.310Z,1003.74
2017-02-02T03:51:29.692Z,1003.74
2017-02-02T03:56:27.019Z,1003.77
2017-02-02T04:01:23.431Z,1003.67
2017-02-02T04:06:19.954Z,1003.65
2017-02-02T04:11:16.335Z,1003.71
2017-02-02T04:16:12.822Z,1003.68
2017-02-02T04:21:09.463Z,1003.71
2017-02-02T04:26:06.055Z,1003.59
2017-02-02T04:31:02.029Z,1003.56
2017-02-02T04:35:58.436Z,1003.59
2017-02-02T04:40:54.888Z,1003.56
2017-02-02T04:45:51.338Z,1003.55
2017-02-02T04:50:47.825Z,1003.54
2017-02-02T04:55:44.301Z,1003.53
2017-02-02T05:00:40.883Z,1003.53
2017-02-02T05:05:37.696Z,1003.35
2017-02-02T05:10:33.974Z,1003.27
2017-02-02T05:15:30.494Z,1003.39
2017-02-02T05:20:26.801Z,1003.34
2017-02-02T05:25:23.320Z,1003.30
2017-02-02T05:30:19.891Z,1003.30
2017-02-02T05:35:16.245Z,1003.30
2017-02-02T05:40:13.245Z,1003.35
2017-02-02T05:45:10.034Z,1003.31
2017-02-02T05:50:06.298Z,1003.31
2017-02-02T05:55:02.854Z,1003.29
2017-02-02T05:59:59.144Z,1003.29
2017-02-02T06:04:56.058Z,1003.38
2017-02-02T06:09:52.313Z,1003.35
2017-02-02T06:14:48.799Z,1003.32
2017-02-02T06:19:44.877Z,1003.25
2017-02-02T06:24:42.509Z,1003.34
2017-02-02T06:29:38.713Z,1003.36
2017-02-02T06:34:36.083Z,1003.36
2017-02-02T06:39:32.301Z,1003.37
2017-02-02T06:44:28.625Z,1003.33
2017-02-02T06:49:25.894Z,1003.38
2017-02-02T06:54:22.330Z,1003.39
2017-02-02T06:59:18.910Z,1003.39
2017-02-02T07:04:15.238Z,1003.43
2017-02-02T07:09:12.155Z,1003.60
2017-02-02T07:14:08.607Z,1003.49
2017-02-02T07:19:05.273Z,1003.43
2017-02-02T07:24:01.644Z,1003.46
2017-02-02T07:28:57.945Z,1003.36
2017-02-02T07:33:54.531Z,1003.40
2017-02-02T07:38:51.766Z,1003.38
2017-02-02T07:43:49.065Z,1003.34
2017-02-02T07:48:46.448Z,1003.37
2017-02-02T07:53:43.350Z,1003.39
2017-02-02T07:58:40.214Z,1003.34
2017-02-02T08:03:36.777Z,1003.31
2017-02-02T08:08:33.418Z,1003.28
2017-02-02T08:13:29.923Z,1003.21
2017-02-02T08:18:26.364Z,1003.18
2017-02-02T08:23:22.894Z,1003.19
2017-02-02T08:28:19.491Z,1003.23
2017-02-02T08:33:15.982Z,1003.21
2017-02-02T08:38:12.502Z,1003.10
2017-02-02T08:43:09.904Z,1003.10
2017-02-02T08:48:07.321Z,1002.95
2017-02-02T08:53:04.166Z,1002.91
2017-02-02T08:58:00.707Z,1002.93
2017-02-02T09:02:57.363Z,1002.85
2017-02-02T09:07:54.139Z,1002.90
2017-02-02T09:12:50.848Z,1002.89
2017-02-02T09:17:47.116Z,1002.88
2017-02-02T09:22:44.037Z,1002.96
2017-02-02T09:27:40.614Z,1002.97
2017-02-02T09:32:37.091Z,1002.88
2017-02-02T09:37:34.362Z,1002.85
2017-02-02T09:42:31.022Z,1002.76
2017-02-02T09:47:27.733Z,1002.73
2017-02-02T09:52:24.608Z,1002.67
2017-02-02T09:57:21.405Z,1002.58
2017-02-02T10:07:18.571Z,1002.65
2017-02-02T10:12:15.313Z,1002.54
2017-02-02T10:17:13.310Z,1002.60
2017-02-02T10:22:09.550Z,1002.55
2017-02-02T10:27:08.510Z,1002.58
2017-02-02T10:32:04.139Z,1002.55
2017-02-02T10:37:00.982Z,1002.49
2017-02-02T10:47:01.585Z,1002.36
2017-02-02T10:51:58.315Z,1002.37
2017-02-02T10:56:55.483Z,1002.27
2017-02-02T11:01:52.270Z,1002.20
2017-02-02T11:06:49.668Z,1002.03
2017-02-02T11:11:45.996Z,1001.99
2017-02-02T11:16:43.711Z,1001.95
2017-02-02T11:21:39.441Z,1002.00
2017-02-02T11:26:38.708Z,1001.90
2017-02-02T11:31:34.750Z,1001.73
2017-02-02T11:36:31.771Z,1001.68
2017-02-02T11:41:29.544Z,1001.56
2017-02-02T11:46:28.374Z,1001.61
2017-02-02T11:51:24.697Z,1001.50
2017-02-02T11:56:22.398Z,1001.45
2017-02-02T12:01:18.502Z,1001.34
2017-02-02T12:06:16.054Z,1001.33
2017-02-02T12:11:12.729Z,1001.10
2017-02-02T12:16:09.717Z,1001.07
2017-02-02T12:21:06.025Z,1000.90
2017-02-02T12:26:02.419Z,1000.79
2017-02-02T12:30:58.610Z,1000.77
2017-02-02T12:35:55.034Z,1000.64
2017-02-02T12:40:51.593Z,1000.64
2017-02-02T12:45:48.047Z,1000.46
2017-02-02T12:50:45.223Z,1000.46
2017-02-02T12:55:41.844Z,1000.36
2017-02-02T13:00:38.155Z,1000.39
2017-02-02T13:05:34.746Z,1000.30
2017-02-02T13:10:31.318Z,1000.26
2017-02-02T13:15:28.025Z,1000.20
2017-02-02T13:20:24.415Z,1000.21
2017-02-02T13:25:21.481Z,1000.19
2017-02-02T13:30:18.194Z,1000.16
2017-02-02T13:35:14.978Z,1000.21
2017-02-02T13:40:12.399Z,1000.18
2017-02-02T13:45:09.412Z,1000.04
2017-02-02T13:50:06.798Z,999.91
2017-02-02T13:55:03.508Z,999.85
2017-02-02T14:00:00.108Z,999.92
2017-02-02T14:04:56.360Z,999.94
2017-02-02T14:09:52.745Z,999.90
2017-02-02T14:14:48.921Z,999.78
2017-02-02T14:19:45.405Z,999.77
2017-02-02T14:24:41.846Z,999.73
2017-02-02T14:29:38.122Z,999.59
2017-02-02T14:34:35.781Z,999.63
2017-02-02T14:39:32.003Z,999.63
2017-02-02T14:44:28.571Z,999.63
2017-02-02T14:49:24.983Z,999.62
2017-02-02T14:54:21.559Z,999.66
2017-02-02T14:59:17.984Z,999.58
2017-02-02T15:04:14.609Z,999.49
2017-02-02T15:09:11.096Z,999.44
2017-02-02T15:14:07.857Z,999.43
2017-02-02T15:19:05.333Z,999.44
2017-02-02T15:24:01.998Z,999.41
2017-02-02T15:28:59.151Z,999.33
2017-02-02T15:33:55.626Z,999.38
2017-02-02T15:38:52.199Z,999.30
2017-02-02T15:43:49.157Z,999.33
2017-02-02T15:48:45.454Z,999.33
2017-02-02T15:53:42.255Z,999.35
2017-02-02T15:58:38.497Z,999.25
2017-02-02T16:03:35.156Z,999.25
2017-02-02T16:08:31.440Z,999.19
2017-02-02T16:13:27.731Z,999.15
2017-02-02T16:18:24.173Z,999.21
2017-02-02T16:23:21.777Z,999.26
2017-02-02T16:28:18.038Z,999.31
2017-02-02T16:33:14.149Z,999.21
2017-02-02T16:38:10.667Z,999.26
2017-02-02T16:43:07.135Z,999.26
2017-02-02T16:48:03.878Z,999.39
2017-02-02T16:53:00.480Z,999.40
2017-02-02T16:57:56.767Z,999.35
2017-02-02T17:02:53.329Z,999.39
2017-02-02T17:07:50.063Z,999.42
2017-02-02T17:12:47.392Z,999.25
2017-02-02T17:17:46.201Z,999.38
2017-02-02T17:22:42.620Z,999.46
2017-02-02T17:27:39.458Z,999.44
2017-02-02T17:32:37.568Z,999.39
2017-02-02T17:37:33.898Z,999.30
2017-02-02T17:42:31.161Z,999.25
2017-02-02T17:47:27.400Z,999.28
2017-02-02T17:52:23.760Z,999.41
2017-02-02T17:57:20.262Z,999.34
2017-02-02T18:02:16.781Z,999.38
2017-02-02T18:07:13.220Z,999.42
2017-02-02T18:12:09.720Z,999.32
2017-02-02T18:17:06.522Z,999.35
2017-02-02T18:22:02.901Z,999.32
2017-02-02T18:26:59.357Z,999.48
2017-02-02T18:31:56.957Z,999.38
2017-02-02T18:36:53.280Z,999.29
2017-02-02T18:41:49.953Z,999.35
2017-02-02T18:46:46.640Z,999.37
2017-02-02T18:51:43.859Z,999.22
2017-02-02T18:56:40.768Z,999.17
2017-02-02T19:01:37.539Z,999.12
2017-02-02T19:06:34.194Z,999.20
2017-02-02T19:11:30.878Z,999.22
2017-02-02T19:16:27.378Z,999.17
2017-02-02T19:21:25.140Z,999.18
2017-02-02T19:26:21.810Z,999.22
2017-02-02T19:31:18.652Z,999.13
2017-02-02T19:36:15.179Z,999.09
2017-02-02T19:41:11.821Z,999.08
2017-02-02T19:46:08.802Z,998.98
2017-02-02T19:51:05.636Z,999.00
2017-02-02T19:56:02.181Z,999.11
2017-02-02T20:00:58.963Z,999.11
2017-02-02T20:05:55.363Z,999.00
2017-02-02T20:10:52.087Z,999.08
2017-02-02T20:15:48.496Z,999.03
2017-02-02T20:20:45.752Z,999.00
2017-02-02T20:25:42.535Z,998.96
2017-02-02T20:30:38.944Z,998.91
2017-02-02T20:35:35.464Z,998.86
2017-02-02T20:40:32.737Z,998.91
2017-02-02T20:45:30.019Z,998.78
2017-02-02T20:50:26.351Z,998.78
2017-02-02T20:55:23.043Z,998.83
2017-02-02T21:00:19.897Z,998.78
2017-02-02T21:05:16.791Z,998.72
2017-02-02T21:10:13.184Z,998.71
2017-02-02T21:15:11.302Z,998.65
2017-02-02T21:20:07.367Z,998.57
2017-02-02T21:25:03.702Z,998.47
2017-02-02T21:30:00.250Z,998.44
2017-02-02T21:34:56.583Z,998.46
2017-02-02T21:39:53.210Z,998.44
2017-02-02T21:44:49.605Z,998.39
2017-02-02T21:49:46.036Z,998.44
2017-02-02T21:54:42.385Z,998.30
2017-02-02T21:59:39.006Z,998.29
2017-02-02T22:04:35.420Z,998.24
2017-02-02T22:09:32.499Z,998.21
2017-02-02T22:14:28.989Z,998.13
2017-02-02T22:19:25.229Z,998.18
2017-02-02T22:24:21.387Z,998.05
2017-02-02T22:29:18.369Z,998.05
2017-02-02T22:34:14.777Z,998.04
2017-02-02T22:39:11.811Z,997.94
2017-02-02T22:44:08.289Z,997.89
2017-02-02T22:49:05.714Z,997.97
2017-02-02T22:54:02.084Z,997.98
2017-02-02T22:58:58.738Z,997.96
2017-02-02T23:03:55.467Z,997.79
2017-02-02T23:08:51.666Z,997.82
2017-02-02T23:13:48.534Z,997.93
2017-02-02T23:18:45.226Z,997.88
2017-02-02T23:23:41.946Z,997.92
2017-02-02T23:28:38.521Z,997.83
2017-02-02T23:33:35.349Z,997.68
2017-02-02T23:38:32.104Z,997.69
2017-02-02T23:43:28.519Z,997.66
2017-02-02T23:48:25.234Z,997.58
2017-02-02T23:53:21.824Z,997.61
2017-02-02T23:58:18.319Z,997.63
